Time;durP1;ratioP1;P1;durP2;ratioP2;P2;SDS_P1;SDS_P2;PMS_P1;PMS_P2;Temp;Humidity;BMP_temperature;BMP_pressure;BME280_temperature;BME280_humidity;BME280_pressure;Samples;Min_cycle;Max_cycle;Signal;HPM_P1;HPM_P2
2022/12/14 00:01:27;;;;;;;6.03;3.83;;;;;;;;;;10404290;28;20500;-61
2022/12/14 00:06:30;;;;;;;7.47;4.10;;;;;;;;;;10404680;28;20420;-61
2022/12/14 00:11:32;;;;;;;11.20;4.75;;;;;;;;;;10403357;28;20112;-61
2022/12/14 00:16:35;;;;;;;5.85;3.53;;;;;;;;;;10403811;28;20033;-60
2022/12/14 00:21:35;;;;;;;6.25;3.83;;;;;;;;;;10383775;28;20052;-60
2022/12/14 00:26:36;;;;;;;7.10;3.30;;;;;;;;;;10403689;28;20026;-60
2022/12/14 00:31:36;;;;;;;6.20;3.53;;;;;;;;;;10390175;28;20139;-60
2022/12/14 00:36:37;;;;;;;7.85;4.03;;;;;;;;;;10379944;28;20022;-60
2022/12/14 00:41:37;;;;;;;5.88;3.72;;;;;;;;;;10392288;28;20443;-60
2022/12/14 00:46:38;;;;;;;6.25;4.05;;;;;;;;;;10392450;28;20466;-60
2022/12/14 00:51:39;;;;;;;5.70;3.65;;;;;;;;;;10366425;28;20520;-60
2022/12/14 00:56:39;;;;;;;6.65;3.70;;;;;;;;;;10391399;28;20226;-61
2022/12/14 01:01:40;;;;;;;4.80;3.30;;;;;;;;;;10403856;28;20022;-61
2022/12/14 01:06:40;;;;;;;7.15;3.80;;;;;;;;;;10409362;28;20492;-61
2022/12/14 01:11:42;;;;;;;5.03;3.45;;;;;;;;;;10411245;28;20169;-61
2022/12/14 01:16:43;;;;;;;7.63;3.63;;;;;;;;;;10398379;28;20021;-61
2022/12/14 01:21:44;;;;;;;5.65;3.50;;;;;;;;;;10402164;28;20079;-61
2022/12/14 01:26:45;;;;;;;7.05;3.33;;;;;;;;;;10402001;28;20032;-61
2022/12/14 01:31:45;;;;;;;5.32;3.60;;;;;;;;;;10409772;28;20595;-60
2022/12/14 01:36:46;;;;;;;7.53;3.78;;;;;;;;;;10409649;28;20976;-60
2022/12/14 01:41:51;;;;;;;4.60;3.33;;;;;;;;;;10397286;28;20022;-61
2022/12/14 01:47:25;;;;;;;6.55;3.63;;;;;;;;;;10395771;28;20214;-61
2022/12/14 01:52:37;;;;;;;5.82;3.58;;;;;;;;;;10396271;28;20046;-61
2022/12/14 01:57:58;;;;;;;5.78;3.50;;;;;;;;;;10391620;28;20366;-61
2022/12/14 02:03:14;;;;;;;5.30;3.05;;;;;;;;;;10384122;28;20017;-60
2022/12/14 02:08:17;;;;;;;5.75;3.65;;;;;;;;;;10386665;28;20484;-60
2022/12/14 02:13:32;;;;;;;4.32;3.25;;;;;;;;;;10395685;28;20104;-60
2022/12/14 02:18:33;;;;;;;5.07;3.30;;;;;;;;;;10396633;28;20029;-60
2022/12/14 02:24:16;;;;;;;4.10;2.97;;;;;;;;;;10392735;28;20043;-61
2022/12/14 02:29:51;;;;;;;5.10;3.20;;;;;;;;;;10403703;28;20437;-61
2022/12/14 02:35:16;;;;;;;8.63;3.33;;;;;;;;;;10387622;28;20045;-60
2022/12/14 02:40:24;;;;;;;6.07;2.80;;;;;;;;;;10384043;28;20362;-60
2022/12/14 02:45:49;;;;;;;5.20;3.30;;;;;;;;;;10396780;28;20391;-60
2022/12/14 02:51:07;;;;;;;10.77;4.00;;;;;;;;;;10420945;28;20088;-61
2022/12/14 02:56:12;;;;;;;4.30;2.78;;;;;;;;;;10382178;28;20033;-61
2022/12/14 03:01:23;;;;;;;5.38;2.90;;;;;;;;;;10396520;28;20440;-61
2022/12/14 03:06:24;;;;;;;5.97;3.30;;;;;;;;;;10381555;28;20536;-61
2022/12/14 03:12:03;;;;;;;6.40;3.97;;;;;;;;;;10393940;28;20078;-60
2022/12/14 03:17:16;;;;;;;4.95;3.17;;;;;;;;;;10394692;28;20033;-61
2022/12/14 03:22:25;;;;;;;6.50;2.90;;;;;;;;;;10406003;28;20373;-61
2022/12/14 03:27:32;;;;;;;5.18;2.90;;;;;;;;;;10405254;28;20034;-61
2022/12/14 03:32:36;;;;;;;5.00;3.05;;;;;;;;;;10381107;28;20040;-61
2022/12/14 03:37:55;;;;;;;4.05;2.90;;;;;;;;;;10382873;28;20260;-61
2022/12/14 03:43:01;;;;;;;5.97;3.50;;;;;;;;;;10403241;28;20026;-61
2022/12/14 03:48:16;;;;;;;5.70;3.35;;;;;;;;;;10384774;28;20050;-61
2022/12/14 03:53:44;;;;;;;4.55;3.08;;;;;;;;;;10395160;28;20041;-61
2022/12/14 03:58:44;;;;;;;5.22;3.53;;;;;;;;;;10405952;28;20080;-61
2022/12/14 04:03:56;;;;;;;4.78;2.65;;;;;;;;;;10391899;28;20021;-61
2022/12/14 04:09:10;;;;;;;4.68;3.00;;;;;;;;;;10402446;28;20033;-61
2022/12/14 04:19:54;;;;;;;4.03;2.40;;;;;;;;;;10382350;28;20038;-60
2022/12/14 04:30:30;;;;;;;3.10;2.80;;;;;;;;;;10384118;28;20104;-60
2022/12/14 04:35:37;;;;;;;3.55;2.92;;;;;;;;;;10381501;28;20437;-60
2022/12/14 04:40:52;;;;;;;3.53;2.47;;;;;;;;;;10423593;28;20029;-60
2022/12/14 04:46:16;;;;;;;5.57;2.83;;;;;;;;;;10420557;28;20449;-60
2022/12/14 04:51:32;;;;;;;5.68;3.10;;;;;;;;;;10412347;28;20110;-60
2022/12/14 04:56:54;;;;;;;4.47;2.60;;;;;;;;;;10414279;28;20088;-61
2022/12/14 05:02:29;;;;;;;3.53;2.80;;;;;;;;;;10386503;28;20022;-60
2022/12/14 05:08:10;;;;;;;2.85;2.55;;;;;;;;;;10399500;28;20040;-61
2022/12/14 05:13:21;;;;;;;3.70;2.80;;;;;;;;;;10386411;28;20084;-60
2022/12/14 05:18:22;;;;;;;3.55;2.95;;;;;;;;;;10386927;28;20524;-60
2022/12/14 05:23:23;;;;;;;4.75;3.25;;;;;;;;;;10376855;28;20042;-61
2022/12/14 05:28:23;;;;;;;4.55;2.78;;;;;;;;;;10386653;28;20037;-60
2022/12/14 05:33:24;;;;;;;3.08;2.60;;;;;;;;;;10399051;28;20040;-61
2022/12/14 05:38:24;;;;;;;3.30;2.78;;;;;;;;;;10374830;28;20025;-61
2022/12/14 05:43:25;;;;;;;3.53;2.65;;;;;;;;;;10398140;28;20488;-61
2022/12/14 05:48:26;;;;;;;3.90;2.55;;;;;;;;;;10403653;28;20497;-61
2022/12/14 05:53:26;;;;;;;3.95;2.60;;;;;;;;;;10408469;28;20510;-61
2022/12/14 05:58:27;;;;;;;2.67;2.45;;;;;;;;;;10409778;28;20021;-60
2022/12/14 06:03:28;;;;;;;3.40;2.42;;;;;;;;;;10402802;28;20040;-61
2022/12/14 06:08:37;;;;;;;2.65;2.38;;;;;;;;;;10395251;28;20517;-61
2022/12/14 06:13:39;;;;;;;4.55;2.60;;;;;;;;;;10384465;28;20022;-61
2022/12/14 06:18:45;;;;;;;3.58;2.60;;;;;;;;;;10383458;28;20038;-61
2022/12/14 06:23:46;;;;;;;3.35;2.60;;;;;;;;;;10381326;28;20030;-61
2022/12/14 06:28:47;;;;;;;5.40;2.40;;;;;;;;;;10386590;28;20367;-58
2022/12/14 06:33:48;;;;;;;6.20;2.92;;;;;;;;;;10394308;28;20037;-58
2022/12/14 06:39:10;;;;;;;7.95;3.05;;;;;;;;;;10392746;28;20038;-59
2022/12/14 06:44:13;;;;;;;10.43;3.42;;;;;;;;;;10390185;28;20045;-58
2022/12/14 06:49:15;;;;;;;4.22;2.75;;;;;;;;;;10396784;28;20073;-58
2022/12/14 06:54:17;;;;;;;14.20;3.28;;;;;;;;;;10387965;28;20033;-60
2022/12/14 06:59:17;;;;;;;8.85;3.78;;;;;;;;;;10398149;28;20072;-61
2022/12/14 07:04:20;;;;;;;12.57;4.47;;;;;;;;;;10379820;28;20029;-60
2022/12/14 07:09:20;;;;;;;8.95;4.20;;;;;;;;;;10383683;28;20042;-60
2022/12/14 07:14:21;;;;;;;11.95;4.43;;;;;;;;;;10382888;28;20042;-60
2022/12/14 07:19:21;;;;;;;6.57;3.75;;;;;;;;;;10383215;28;20133;-61
2022/12/14 07:24:22;;;;;;;8.25;3.88;;;;;;;;;;10386494;28;20017;-60
2022/12/14 07:29:25;;;;;;;8.75;4.47;;;;;;;;;;10380473;28;20021;-60
2022/12/14 07:34:26;;;;;;;17.80;4.88;;;;;;;;;;10382781;28;20061;-59
2022/12/14 07:39:26;;;;;;;10.07;4.72;;;;;;;;;;10384463;28;20358;-60
2022/12/14 07:44:27;;;;;;;13.80;5.22;;;;;;;;;;10397148;28;20029;-59
2022/12/14 07:49:28;;;;;;;8.52;4.70;;;;;;;;;;10384750;28;20034;-61
2022/12/14 07:54:29;;;;;;;16.85;5.25;;;;;;;;;;10394499;28;20025;-61
2022/12/14 07:59:29;;;;;;;7.32;5.03;;;;;;;;;;10379888;28;20018;-61
2022/12/14 08:04:30;;;;;;;9.00;5.40;;;;;;;;;;10393037;28;20029;-61
2022/12/14 08:09:31;;;;;;;10.60;5.50;;;;;;;;;;10387694;28;20022;-61
2022/12/14 08:14:31;;;;;;;9.52;5.47;;;;;;;;;;10376744;28;20052;-61
2022/12/14 08:19:32;;;;;;;6.40;5.22;;;;;;;;;;10378241;28;20038;-61
2022/12/14 08:24:32;;;;;;;8.13;5.50;;;;;;;;;;10388475;28;20095;-61
2022/12/14 08:29:33;;;;;;;9.10;6.45;;;;;;;;;;10401119;28;20017;-61
2022/12/14 08:34:33;;;;;;;15.25;6.38;;;;;;;;;;10394474;28;20396;-61
2022/12/14 08:39:34;;;;;;;11.50;6.45;;;;;;;;;;10410787;28;20032;-61
2022/12/14 08:44:35;;;;;;;8.35;5.93;;;;;;;;;;10416625;28;20040;-60
2022/12/14 08:49:55;;;;;;;9.75;6.25;;;;;;;;;;10408377;28;20052;-61
2022/12/14 08:54:57;;;;;;;8.15;6.07;;;;;;;;;;10406113;28;20444;-61
2022/12/14 08:59:58;;;;;;;11.43;5.93;;;;;;;;;;10405100;28;20072;-60
2022/12/14 09:04:58;;;;;;;10.52;6.53;;;;;;;;;;10400837;28;20536;-60
2022/12/14 09:09:59;;;;;;;14.68;6.57;;;;;;;;;;10398963;28;20590;-61
2022/12/14 09:14:59;;;;;;;18.48;6.13;;;;;;;;;;10397163;28;20393;-61
2022/12/14 09:20:00;;;;;;;15.15;6.38;;;;;;;;;;10405192;28;20390;-61
2022/12/14 09:25:01;;;;;;;11.68;6.68;;;;;;;;;;10398012;28;20533;-61
2022/12/14 09:30:02;;;;;;;7.60;5.57;;;;;;;;;;10394320;28;20045;-60
2022/12/14 09:35:03;;;;;;;11.52;6.50;;;;;;;;;;10390821;28;20382;-60
2022/12/14 09:40:05;;;;;;;10.27;6.45;;;;;;;;;;10409170;28;20040;-61
2022/12/14 09:45:10;;;;;;;9.95;6.38;;;;;;;;;;10386291;28;20022;-61
2022/12/14 09:50:21;;;;;;;12.48;6.68;;;;;;;;;;10389021;28;20132;-60
2022/12/14 09:55:31;;;;;;;12.32;6.30;;;;;;;;;;10395888;28;20025;-61
2022/12/14 10:00:39;;;;;;;11.02;6.57;;;;;;;;;;10405758;28;20466;-60
2022/12/14 10:05:45;;;;;;;10.60;6.50;;;;;;;;;;10397260;28;20029;-60
2022/12/14 10:11:06;;;;;;;13.38;6.55;;;;;;;;;;10388527;28;20087;-61
2022/12/14 10:16:41;;;;;;;9.25;6.28;;;;;;;;;;10377022;28;20075;-61
2022/12/14 10:21:54;;;;;;;9.35;6.55;;;;;;;;;;10408272;28;20061;-61
2022/12/14 10:26:55;;;;;;;10.45;5.95;;;;;;;;;;10406554;28;20156;-61
2022/12/14 10:32:16;;;;;;;11.25;6.50;;;;;;;;;;10403273;28;20099;-61
2022/12/14 10:37:30;;;;;;;9.98;5.95;;;;;;;;;;10403798;28;20021;-61
2022/12/14 10:43:10;;;;;;;8.77;5.78;;;;;;;;;;10412840;28;20029;-61
2022/12/14 10:48:31;;;;;;;9.23;6.28;;;;;;;;;;10378205;28;20042;-60
2022/12/14 10:53:48;;;;;;;9.80;6.28;;;;;;;;;;10399238;28;20033;-61
2022/12/14 10:59:22;;;;;;;10.57;6.45;;;;;;;;;;10387536;28;20025;-61
2022/12/14 11:04:45;;;;;;;10.20;5.80;;;;;;;;;;10381286;28;20037;-61
2022/12/14 11:09:46;;;;;;;9.57;5.63;;;;;;;;;;10406961;28;20377;-61
2022/12/14 11:14:55;;;;;;;8.07;5.63;;;;;;;;;;10392090;28;20026;-60
2022/12/14 11:20:16;;;;;;;9.35;5.55;;;;;;;;;;10370669;28;20107;-60
2022/12/14 11:25:30;;;;;;;9.23;5.72;;;;;;;;;;10383698;28;20436;-60
2022/12/14 11:30:31;;;;;;;7.60;5.82;;;;;;;;;;10375356;28;20176;-60
2022/12/14 11:35:31;;;;;;;7.05;5.40;;;;;;;;;;10383306;28;20041;-60
2022/12/14 11:40:36;;;;;;;8.40;6.10;;;;;;;;;;10379513;28;20397;-60
2022/12/14 11:45:37;;;;;;;8.27;5.43;;;;;;;;;;10386291;28;20377;-60
2022/12/14 11:50:38;;;;;;;8.77;6.00;;;;;;;;;;10392427;28;20325;-60
2022/12/14 11:55:48;;;;;;;9.15;5.50;;;;;;;;;;10383543;28;20478;-60
2022/12/14 12:00:57;;;;;;;8.65;6.05;;;;;;;;;;10383312;28;20038;-61
2022/12/14 12:06:09;;;;;;;7.53;5.63;;;;;;;;;;10381144;28;20086;-60
2022/12/14 12:11:19;;;;;;;6.22;5.10;;;;;;;;;;10403770;28;20404;-61
2022/12/14 12:16:24;;;;;;;6.80;5.45;;;;;;;;;;10395114;28;20114;-60
2022/12/14 12:21:34;;;;;;;7.22;5.68;;;;;;;;;;10401548;28;20393;-60
2022/12/14 12:27:12;;;;;;;7.93;5.07;;;;;;;;;;10390945;28;20064;-60
2022/12/14 12:32:20;;;;;;;9.45;4.88;;;;;;;;;;10381400;28;20032;-60
2022/12/14 12:37:37;;;;;;;7.07;5.40;;;;;;;;;;10392196;28;20112;-60
2022/12/14 12:42:54;;;;;;;6.18;5.05;;;;;;;;;;10373399;28;20033;-60
2022/12/14 12:48:10;;;;;;;8.25;5.10;;;;;;;;;;10393799;28;20622;-61
2022/12/14 12:53:25;;;;;;;7.00;5.20;;;;;;;;;;10405454;28;20477;-60
2022/12/14 12:58:29;;;;;;;7.57;5.13;;;;;;;;;;10386800;28;20557;-60
2022/12/14 13:03:43;;;;;;;7.97;5.20;;;;;;;;;;10382178;28;20144;-60
2022/12/14 13:08:50;;;;;;;6.55;5.03;;;;;;;;;;10410063;28;20029;-60
2022/12/14 13:14:06;;;;;;;7.30;4.90;;;;;;;;;;10404590;28;20428;-61
2022/12/14 13:19:22;;;;;;;8.93;5.30;;;;;;;;;;10418750;28;20113;-60
2022/12/14 13:24:23;;;;;;;7.53;5.00;;;;;;;;;;10390387;28;20506;-60
2022/12/14 13:30:03;;;;;;;7.20;5.15;;;;;;;;;;10392236;28;20029;-60
2022/12/14 13:35:33;;;;;;;6.10;4.78;;;;;;;;;;10384050;28;20045;-60
2022/12/14 13:41:01;;;;;;;7.20;5.13;;;;;;;;;;10386748;28;20389;-59
2022/12/14 13:46:18;;;;;;;6.67;4.63;;;;;;;;;;10386593;28;20029;-60
2022/12/14 13:51:33;;;;;;;10.02;5.38;;;;;;;;;;10392206;28;20057;-60
2022/12/14 13:56:38;;;;;;;8.45;4.90;;;;;;;;;;10385502;28;20037;-60
2022/12/14 14:01:44;;;;;;;7.50;4.55;;;;;;;;;;10385943;28;20033;-60
2022/12/14 14:06:48;;;;;;;7.47;4.90;;;;;;;;;;10401989;28;20037;-59
2022/12/14 14:11:57;;;;;;;4.80;4.13;;;;;;;;;;10385814;28;20062;-60
2022/12/14 14:17:21;;;;;;;5.70;4.45;;;;;;;;;;10385735;28;20055;-60
2022/12/14 14:22:30;;;;;;;6.82;4.70;;;;;;;;;;10394868;28;20061;-60
2022/12/14 14:27:35;;;;;;;5.40;4.20;;;;;;;;;;10399567;28;20318;-60
2022/12/14 14:32:40;;;;;;;6.32;4.45;;;;;;;;;;10394969;28;20069;-60
2022/12/14 14:37:40;;;;;;;5.90;4.60;;;;;;;;;;10400216;28;20017;-60
2022/12/14 14:42:51;;;;;;;6.93;4.60;;;;;;;;;;10406553;28;20040;-60
2022/12/14 14:47:58;;;;;;;7.65;4.68;;;;;;;;;;10416000;28;20097;-60
2022/12/14 14:53:27;;;;;;;6.20;4.25;;;;;;;;;;10404478;28;20037;-59
2022/12/14 14:58:33;;;;;;;6.60;4.65;;;;;;;;;;10385036;28;20411;-60
2022/12/14 15:03:58;;;;;;;6.30;4.80;;;;;;;;;;10395489;28;20042;-60
2022/12/14 15:09:05;;;;;;;6.13;4.47;;;;;;;;;;10383027;28;20110;-60
2022/12/14 15:14:17;;;;;;;5.65;4.38;;;;;;;;;;10391255;28;20041;-60
2022/12/14 15:19:34;;;;;;;4.57;3.75;;;;;;;;;;10398338;28;20480;-60
2022/12/14 15:29:45;;;;;;;;;;;;;;;;;;10394720;28;20042;-61
2022/12/14 15:34:55;;;;;;;5.22;4.03;;;;;;;;;;10419320;28;19999;-61
2022/12/14 15:40:12;;;;;;;5.28;4.72;;;;;;;;;;10379486;28;20060;-61
2022/12/14 15:45:19;;;;;;;6.05;4.20;;;;;;;;;;10387499;28;20022;-61
2022/12/14 15:50:31;;;;;;;5.53;4.10;;;;;;;;;;10391225;28;20052;-61
2022/12/14 15:55:36;;;;;;;5.82;4.20;;;;;;;;;;10392716;28;20080;-61
2022/12/14 16:00:45;;;;;;;6.55;4.47;;;;;;;;;;10399943;28;20053;-49
2022/12/14 16:05:46;;;;;;;6.13;4.50;;;;;;;;;;10407044;28;20380;-51
2022/12/14 16:10:52;;;;;;;6.22;4.43;;;;;;;;;;10404939;28;20025;-54
2022/12/14 16:15:55;;;;;;;6.78;4.95;;;;;;;;;;10383569;28;20400;-50
2022/12/14 16:20:59;;;;;;;10.65;4.20;;;;;;;;;;10391018;28;20033;-49
2022/12/14 16:26:14;;;;;;;6.22;4.53;;;;;;;;;;10389629;28;20057;-50
2022/12/14 16:31:23;;;;;;;8.93;5.00;;;;;;;;;;10394587;28;20069;-49
2022/12/14 16:36:24;;;;;;;;;;;;;;;;;;10423078;28;20033;-52
2022/12/14 16:41:54;;;;;;;5.65;4.80;;;;;;;;;;10407753;28;19949;-49
2022/12/14 16:47:03;;;;;;;5.72;4.30;;;;;;;;;;10419665;28;20289;-50
2022/12/14 16:52:29;;;;;;;6.32;4.82;;;;;;;;;;10404117;28;20033;-49
2022/12/14 16:57:30;;;;;;;5.50;4.47;;;;;;;;;;10426297;28;20118;-49
2022/12/14 17:02:43;;;;;;;6.07;4.72;;;;;;;;;;10405743;28;21476;-52
2022/12/14 17:07:44;;;;;;;8.23;4.90;;;;;;;;;;10409366;28;20092;-51
2022/12/14 17:12:44;;;;;;;6.22;4.95;;;;;;;;;;10397931;28;20034;-49
2022/12/14 17:17:52;;;;;;;7.55;4.75;;;;;;;;;;10392007;28;20256;-48
2022/12/14 17:22:55;;;;;;;7.50;5.28;;;;;;;;;;10405816;28;20033;-48
2022/12/14 17:27:55;;;;;;;7.93;5.22;;;;;;;;;;10386031;28;20107;-48
2022/12/14 17:32:56;;;;;;;6.85;4.90;;;;;;;;;;10412255;28;20041;-49
2022/12/14 17:37:58;;;;;;;8.27;5.20;;;;;;;;;;10389004;28;20392;-51
2022/12/14 17:42:58;;;;;;;8.35;5.40;;;;;;;;;;10405151;28;20033;-51
2022/12/14 17:47:59;;;;;;;27.35;5.28;;;;;;;;;;10408707;28;20500;-58
2022/12/14 17:53:00;;;;;;;11.93;4.57;;;;;;;;;;10403817;28;20440;-58
2022/12/14 17:58:00;;;;;;;10.80;4.75;;;;;;;;;;10405455;28;20138;-58
2022/12/14 18:03:02;;;;;;;9.30;5.13;;;;;;;;;;10402599;28;20033;-59
2022/12/14 18:08:03;;;;;;;7.28;5.15;;;;;;;;;;10401260;28;20176;-58
2022/12/14 18:13:04;;;;;;;7.97;4.75;;;;;;;;;;10408034;28;20172;-57
2022/12/14 18:18:05;;;;;;;6.40;5.10;;;;;;;;;;10396525;28;20033;-58
2022/12/14 18:23:13;;;;;;;7.63;5.22;;;;;;;;;;10410425;28;20059;-59
2022/12/14 18:28:15;;;;;;;9.13;4.95;;;;;;;;;;10391042;28;20065;-59
2022/12/14 18:33:22;;;;;;;9.25;5.63;;;;;;;;;;10382890;28;20037;-58
2022/12/14 18:38:24;;;;;;;11.27;5.25;;;;;;;;;;10400915;28;20021;-58
2022/12/14 18:43:26;;;;;;;7.97;5.40;;;;;;;;;;10389641;28;20033;-58
2022/12/14 18:48:27;;;;;;;10.98;5.65;;;;;;;;;;10407087;28;20030;-58
2022/12/14 18:53:28;;;;;;;9.85;5.93;;;;;;;;;;10408905;28;20025;-58
2022/12/14 18:58:28;;;;;;;10.15;5.80;;;;;;;;;;10402600;28;20040;-48
2022/12/14 19:03:30;;;;;;;28.48;6.38;;;;;;;;;;10398814;28;20393;-59
2022/12/14 19:08:31;;;;;;;14.18;6.32;;;;;;;;;;10389019;28;20056;-59
2022/12/14 19:13:32;;;;;;;9.65;5.93;;;;;;;;;;10381350;28;20427;-59
2022/12/14 19:18:34;;;;;;;14.32;6.38;;;;;;;;;;10382133;28;20405;-58
2022/12/14 19:23:34;;;;;;;13.77;5.90;;;;;;;;;;10385851;28;20026;-59
2022/12/14 19:28:35;;;;;;;14.40;5.95;;;;;;;;;;10407141;28;20042;-59
2022/12/14 19:33:36;;;;;;;9.25;6.15;;;;;;;;;;10403902;28;20037;-60
2022/12/14 19:38:37;;;;;;;11.55;6.68;;;;;;;;;;10403758;28;20564;-59
2022/12/14 19:43:38;;;;;;;11.20;6.68;;;;;;;;;;10399247;28;20257;-59
2022/12/14 19:48:39;;;;;;;8.77;5.75;;;;;;;;;;10402333;28;20052;-60
2022/12/14 19:53:41;;;;;;;11.55;6.30;;;;;;;;;;10405645;28;20037;-59
2022/12/14 19:58:42;;;;;;;13.60;6.10;;;;;;;;;;10403922;28;20096;-59
2022/12/14 20:03:43;;;;;;;10.40;6.28;;;;;;;;;;10403162;28;20025;-59
2022/12/14 20:08:44;;;;;;;9.85;5.97;;;;;;;;;;10406321;28;20029;-60
2022/12/14 20:13:45;;;;;;;11.88;6.28;;;;;;;;;;10407078;28;20025;-59
2022/12/14 20:18:46;;;;;;;10.95;6.22;;;;;;;;;;10406904;28;20449;-59
2022/12/14 20:23:48;;;;;;;12.82;6.80;;;;;;;;;;10406512;28;20382;-60
2022/12/14 20:28:51;;;;;;;14.73;6.32;;;;;;;;;;10405848;28;20049;-59
2022/12/14 20:33:52;;;;;;;14.70;6.80;;;;;;;;;;10406709;28;20045;-59
2022/12/14 20:39:00;;;;;;;13.23;5.70;;;;;;;;;;10406239;28;20087;-59
2022/12/14 20:44:01;;;;;;;10.32;6.53;;;;;;;;;;10407263;28;20116;-59
2022/12/14 20:49:06;;;;;;;11.27;5.90;;;;;;;;;;10406138;28;20025;-59
2022/12/14 20:54:10;;;;;;;9.40;6.88;;;;;;;;;;10403978;28;20038;-59
2022/12/14 20:59:11;;;;;;;9.55;6.63;;;;;;;;;;10406158;28;20104;-59
2022/12/14 21:04:12;;;;;;;13.50;6.97;;;;;;;;;;10401151;28;20037;-59
2022/12/14 21:09:13;;;;;;;12.93;6.00;;;;;;;;;;10394499;28;20474;-59
2022/12/14 21:14:15;;;;;;;11.70;6.53;;;;;;;;;;10399489;28;20033;-54
2022/12/14 21:19:15;;;;;;;9.23;6.28;;;;;;;;;;10404810;28;20041;-60
2022/12/14 21:24:17;;;;;;;9.75;6.25;;;;;;;;;;10408051;28;20101;-60
2022/12/14 21:29:17;;;;;;;12.48;6.95;;;;;;;;;;10408800;28;20041;-60
2022/12/14 21:34:21;;;;;;;9.55;6.40;;;;;;;;;;10409851;28;20033;-60
2022/12/14 21:39:21;;;;;;;11.60;6.53;;;;;;;;;;10412023;28;20024;-60
2022/12/14 21:44:22;;;;;;;9.88;7.20;;;;;;;;;;10408137;28;20040;-60
2022/12/14 21:49:23;;;;;;;11.35;5.82;;;;;;;;;;10406309;28;20036;-59
2022/12/14 21:54:25;;;;;;;12.38;6.43;;;;;;;;;;10395680;28;20037;-60
2022/12/14 21:59:35;;;;;;;9.27;6.38;;;;;;;;;;10406729;28;20116;-60
2022/12/14 22:04:35;;;;;;;12.38;6.28;;;;;;;;;;10401771;28;20109;-59
2022/12/14 22:09:36;;;;;;;8.57;6.10;;;;;;;;;;10401450;28;20043;-60
2022/12/14 22:14:37;;;;;;;10.82;6.45;;;;;;;;;;10393716;28;20109;-60
2022/12/14 22:19:37;;;;;;;9.60;5.93;;;;;;;;;;10405953;28;20029;-60
2022/12/14 22:24:38;;;;;;;9.82;6.30;;;;;;;;;;10410442;28;20037;-60
2022/12/14 22:29:38;;;;;;;11.35;6.00;;;;;;;;;;10409964;28;20038;-60
2022/12/14 22:34:39;;;;;;;7.47;5.80;;;;;;;;;;10390465;28;20490;-60
2022/12/14 22:39:40;;;;;;;12.05;5.95;;;;;;;;;;10378772;28;20026;-61
2022/12/14 22:44:40;;;;;;;9.15;6.55;;;;;;;;;;10380469;28;20025;-60
2022/12/14 22:49:42;;;;;;;12.30;6.00;;;;;;;;;;10384910;28;20037;-59
2022/12/14 22:54:42;;;;;;;10.63;5.93;;;;;;;;;;10376914;28;20113;-59
2022/12/14 23:00:00;;;;;;;7.97;6.15;;;;;;;;;;10373920;28;20042;-60
2022/12/14 23:05:01;;;;;;;13.30;6.20;;;;;;;;;;10383644;28;20493;-59
